Time;durP1;ratioP1;P1;durP2;ratioP2;P2;SDS_P1;SDS_P2;PMS_P1;PMS_P2;Temp;Humidity;BMP_temperature;BMP_pressure;BME280_temperature;BME280_humidity;BME280_pressure;Samples;Min_cycle;Max_cycle;Signal;HPM_P1;HPM_P2
2022/06/22 00:02:02;;;;;;;9.45;5.70;;;;;;;10.20;98.74;101575.03;5054899;28;20044;-71
2022/06/22 00:04:33;;;;;;;12.65;7.45;;;;;;;10.17;98.18;101577.09;5055460;28;20087;-70
2022/06/22 00:07:08;;;;;;;8.77;5.73;;;;;;;10.11;97.54;101574.91;5055162;28;20029;-71
2022/06/22 00:09:39;;;;;;;8.88;5.95;;;;;;;10.05;97.18;101570.91;5055062;28;20107;-71
2022/06/22 00:12:07;;;;;;;13.87;6.97;;;;;;;10.00;97.13;101579.25;5055309;28;20021;-71
2022/06/22 00:14:50;;;;;;;15.60;7.60;;;;;;;9.97;98.59;101571.50;5055206;28;20037;-71
2022/06/22 00:17:19;;;;;;;9.63;6.78;;;;;;;9.94;98.50;101569.09;5054135;28;20039;-71
2022/06/22 00:19:45;;;;;;;9.15;6.53;;;;;;;9.91;99.32;101569.28;5054977;28;20032;-71
2022/06/22 00:22:24;;;;;;;11.13;7.28;;;;;;;9.86;99.06;101566.97;5054984;28;20037;-71
2022/06/22 00:25:00;;;;;;;10.60;6.15;;;;;;;9.81;98.51;101571.81;5054621;28;20377;-72
2022/06/22 00:27:30;;;;;;;8.82;6.43;;;;;;;9.78;98.28;101572.06;5055034;28;20029;-71
2022/06/22 00:30:30;;;;;;;10.75;8.02;;;;;;;9.76;98.98;101565.97;5054573;28;20081;-71
2022/06/22 00:33:13;;;;;;;10.95;7.07;;;;;;;9.72;99.14;101567.19;5054506;28;20057;-71
2022/06/22 00:36:09;;;;;;;13.90;7.85;;;;;;;9.67;98.26;101574.66;5054551;28;20099;-75
2022/06/22 00:38:34;;;;;;;11.45;7.70;;;;;;;9.66;98.78;101572.97;5053053;28;20464;-71
2022/06/22 00:41:13;;;;;;;9.65;7.55;;;;;;;9.67;99.33;101558.72;5054238;28;20037;-71
2022/06/22 00:43:38;;;;;;;9.35;7.53;;;;;;;9.64;98.96;101557.16;5054678;28;20113;-71
2022/06/22 00:46:18;;;;;;;16.48;7.75;;;;;;;9.63;98.74;101565.22;5054186;28;20029;-71
2022/06/22 00:48:46;;;;;;;8.90;7.35;;;;;;;9.60;98.49;101568.97;5054235;28;20065;-71
2022/06/22 00:51:19;;;;;;;10.68;7.65;;;;;;;9.56;99.38;101558.69;5054642;28;20033;-71
2022/06/22 00:53:51;;;;;;;13.55;8.48;;;;;;;9.51;98.89;101559.88;5052852;28;20057;-71
2022/06/22 00:56:16;;;;;;;9.27;7.10;;;;;;;9.49;98.50;101550.31;5054410;28;20025;-71
2022/06/22 00:59:07;;;;;;;12.27;8.15;;;;;;;9.45;98.51;101540.88;5053525;28;20040;-74
2022/06/22 01:01:38;;;;;;;11.82;8.10;;;;;;;9.46;100.00;101539.91;5053090;28;20029;-70
2022/06/22 01:04:03;;;;;;;9.23;7.05;;;;;;;9.41;99.79;101545.56;5054248;28;20107;-72
2022/06/22 01:06:49;;;;;;;11.38;8.13;;;;;;;9.39;99.49;101536.88;5054274;28;20531;-71
2022/06/22 01:09:25;;;;;;;10.25;7.93;;;;;;;9.36;99.40;101550.41;5052994;28;20032;-71
2022/06/22 01:12:23;;;;;;;10.35;7.75;;;;;;;9.34;99.39;101544.34;5052484;28;20106;-71
2022/06/22 01:15:07;;;;;;;10.45;7.70;;;;;;;9.30;99.05;101538.41;5053735;28;20120;-71
2022/06/22 01:17:44;;;;;;;10.18;8.07;;;;;;;9.28;98.71;101544.78;5053975;28;20036;-71
2022/06/22 01:20:43;;;;;;;11.45;7.63;;;;;;;9.26;99.75;101552.88;5054181;28;20040;-71
2022/06/22 01:23:55;;;;;;;11.45;7.43;;;;;;;9.25;99.16;101560.94;5053246;28;20484;-71
2022/06/22 01:26:31;;;;;;;11.75;7.82;;;;;;;9.20;98.88;101550.69;5030861;28;20045;-71
2022/06/22 01:29:25;;;;;;;13.90;8.57;;;;;;;9.23;99.53;101547.78;5053459;28;20064;-71
2022/06/22 01:31:57;;;;;;;14.15;8.80;;;;;;;9.24;100.00;101551.28;5053283;28;20040;-71
2022/06/22 01:34:25;;;;;;;11.00;7.70;;;;;;;9.21;100.00;101551.50;5053320;28;20029;-71
2022/06/22 01:36:51;;;;;;;10.07;7.63;;;;;;;9.18;99.59;101549.91;5052973;28;20029;-71
2022/06/22 01:39:16;;;;;;;9.35;7.05;;;;;;;9.13;99.37;101549.44;5053030;28;20125;-71
2022/06/22 01:41:49;;;;;;;11.73;8.00;;;;;;;9.14;99.84;101557.28;5053452;28;20517;-71
2022/06/22 01:44:23;;;;;;;10.20;7.28;;;;;;;9.12;100.00;101564.53;5053459;28;20437;-71
2022/06/22 01:46:52;;;;;;;13.20;8.30;;;;;;;9.12;100.00;101566.31;5053029;28;20040;-71
2022/06/22 01:49:31;;;;;;;9.23;6.88;;;;;;;9.10;100.00;101579.69;5053472;28;20043;-71
2022/06/22 01:52:36;;;;;;;10.05;7.75;;;;;;;9.08;100.00;101584.28;5052675;28;20544;-71
2022/06/22 01:55:21;;;;;;;12.60;8.77;;;;;;;9.05;100.00;101595.13;5052842;28;20032;-71
2022/06/22 01:57:56;;;;;;;10.48;7.65;;;;;;;9.07;100.00;101595.84;5051814;28;20033;-76
2022/06/22 02:00:22;;;;;;;13.50;7.85;;;;;;;9.05;100.00;101599.59;5053017;28;20068;-76
2022/06/22 02:02:56;;;;;;;12.38;8.77;;;;;;;9.05;100.00;101591.63;5052618;28;20036;-75
2022/06/22 02:05:41;;;;;;;12.77;8.32;;;;;;;9.03;100.00;101585.56;5052486;28;20083;-75
2022/06/22 02:08:20;;;;;;;10.38;8.13;;;;;;;9.01;100.00;101575.06;5051290;28;20041;-75
2022/06/22 02:10:54;;;;;;;13.68;8.32;;;;;;;9.03;100.00;101572.28;5052321;28;20032;-75
2022/06/22 02:13:46;;;;;;;11.68;8.50;;;;;;;9.02;100.00;101562.63;5051434;28;20036;-74
2022/06/22 02:16:37;;;;;;;12.82;8.75;;;;;;;9.02;100.00;101559.97;5052419;28;20162;-75
2022/06/22 02:19:02;;;;;;;15.52;9.13;;;;;;;9.05;100.00;101568.56;5052138;28;20029;-77
2022/06/22 02:21:52;;;;;;;14.15;10.00;;;;;;;9.06;100.00;101575.59;5052102;28;20115;-76
2022/06/22 02:24:28;;;;;;;12.18;9.00;;;;;;;9.02;100.00;101575.88;5051943;28;20465;-75
2022/06/22 02:27:08;;;;;;;14.07;8.10;;;;;;;8.97;100.00;101565.59;5050661;28;20024;-76
2022/06/22 02:29:41;;;;;;;10.73;7.80;;;;;;;8.93;100.00;101556.19;5052244;28;20114;-76
2022/06/22 02:32:12;;;;;;;10.07;8.10;;;;;;;8.89;100.00;101554.72;5052540;28;20033;-76
2022/06/22 02:34:41;;;;;;;11.88;7.95;;;;;;;8.86;100.00;101550.47;5052659;28;20043;-76
2022/06/22 02:37:09;;;;;;;9.45;7.35;;;;;;;8.88;100.00;101551.19;5051665;28;20418;-76
2022/06/22 02:39:43;;;;;;;13.95;8.48;;;;;;;8.87;100.00;101538.03;5050430;28;20025;-76
2022/06/22 02:44:52;;;;;;;16.35;10.65;;;;;;;8.90;100.00;101533.38;5052062;28;20102;-76
2022/06/22 02:47:26;;;;;;;14.65;9.65;;;;;;;8.94;100.00;101534.84;5051477;28;20041;-76
2022/06/22 02:49:54;;;;;;;13.50;9.35;;;;;;;8.89;100.00;101536.13;5052143;28;20111;-76
2022/06/22 02:52:22;;;;;;;13.45;9.57;;;;;;;8.86;100.00;101534.53;5051926;28;20109;-76
2022/06/22 02:54:58;;;;;;;16.70;12.43;;;;;;;8.87;100.00;101524.75;5051742;28;20025;-76
2022/06/22 02:57:47;;;;;;;12.48;10.15;;;;;;;8.85;100.00;101524.88;5051521;28;20453;-75
2022/06/22 03:00:17;;;;;;;15.20;9.40;;;;;;;8.80;100.00;101513.75;5051636;28;20113;-78
2022/06/22 03:02:44;;;;;;;15.85;10.98;;;;;;;8.75;100.00;101498.19;5050969;28;20099;-75
2022/06/22 03:05:11;;;;;;;16.35;10.15;;;;;;;8.73;100.00;101496.59;5051771;28;20044;-75
2022/06/22 03:07:48;;;;;;;20.70;11.23;;;;;;;8.73;100.00;101497.44;5051619;28;20350;-75
2022/06/22 03:10:36;;;;;;;10.70;8.88;;;;;;;8.67;100.00;101492.56;5051490;28;20031;-76
2022/06/22 03:13:01;;;;;;;15.38;9.43;;;;;;;8.62;100.00;101492.06;5051516;28;20108;-76
2022/06/22 03:15:30;;;;;;;15.15;10.00;;;;;;;8.58;100.00;101493.22;5049829;28;20029;-76
2022/06/22 03:17:59;;;;;;;11.38;9.02;;;;;;;8.53;100.00;101498.88;5050927;28;20164;-75
2022/06/22 03:20:27;;;;;;;17.17;10.38;;;;;;;8.52;100.00;101504.28;5051247;28;20025;-76
2022/06/22 03:22:58;;;;;;;18.05;11.65;;;;;;;8.50;100.00;101504.41;5050883;28;20052;-75
2022/06/22 03:25:42;;;;;;;15.93;10.68;;;;;;;8.48;100.00;101501.00;5051792;28;20044;-76
2022/06/22 03:28:25;;;;;;;13.82;9.88;;;;;;;8.44;100.00;101500.38;5051132;28;20052;-75
2022/06/22 03:31:02;;;;;;;15.40;10.23;;;;;;;8.44;100.00;101513.63;5050244;28;20410;-76
2022/06/22 03:33:46;;;;;;;15.48;10.15;;;;;;;8.41;100.00;101521.78;5051878;28;20357;-76
2022/06/22 03:36:18;;;;;;;15.95;10.57;;;;;;;8.42;100.00;101519.94;5051232;28;20029;-76
2022/06/22 03:38:50;;;;;;;13.43;9.73;;;;;;;8.41;100.00;101513.81;5051343;28;20134;-76
2022/06/22 03:41:23;;;;;;;16.08;9.93;;;;;;;8.42;100.00;101512.00;5058978;28;20055;-76
2022/06/22 03:43:57;;;;;;;18.80;10.88;;;;;;;8.42;100.00;101518.16;5061510;28;20033;-76
2022/06/22 03:46:22;;;;;;;16.30;10.55;;;;;;;8.43;100.00;101522.53;5050878;28;20048;-76
2022/06/22 03:48:57;;;;;;;14.63;10.63;;;;;;;8.43;100.00;101517.22;5051359;28;20037;-76
2022/06/22 03:51:27;;;;;;;14.93;10.30;;;;;;;8.43;100.00;101516.34;5052321;28;20036;-76
2022/06/22 03:54:16;;;;;;;22.30;11.80;;;;;;;8.46;100.00;101519.69;5055020;28;20145;-76
2022/06/22 03:56:54;;;;;;;16.88;11.10;;;;;;;8.53;100.00;101527.22;5055144;28;20091;-76
2022/06/22 03:59:19;;;;;;;13.77;10.13;;;;;;;8.53;100.00;101525.41;5054497;28;20132;-76
2022/06/22 04:01:45;;;;;;;16.23;10.43;;;;;;;8.55;100.00;101523.47;5056385;28;20061;-76
2022/06/22 04:04:11;;;;;;;15.38;11.13;;;;;;;8.58;100.00;101527.72;5057095;28;20032;-76
2022/06/22 04:06:40;;;;;;;17.23;10.80;;;;;;;8.59;100.00;101527.59;5055438;28;20338;-76
2022/06/22 04:09:21;;;;;;;14.80;9.85;;;;;;;8.68;100.00;101541.19;5055637;28;20044;-76
2022/06/22 04:12:06;;;;;;;16.25;10.20;;;;;;;8.71;100.00;101536.50;5056471;28;20055;-75
2022/06/22 04:15:09;;;;;;;15.02;10.45;;;;;;;8.75;100.00;101545.09;5057153;28;20040;-76
2022/06/22 04:17:42;;;;;;;13.82;9.68;;;;;;;8.75;100.00;101535.31;5055876;28;20028;-76
2022/06/22 04:20:10;;;;;;;16.77;9.73;;;;;;;8.78;100.00;101534.25;5054130;28;20105;-76
2022/06/22 04:22:41;;;;;;;13.63;9.70;;;;;;;8.80;100.00;101537.66;5054377;28;20060;-74
2022/06/22 04:25:32;;;;;;;15.65;10.13;;;;;;;8.84;100.00;101531.16;5054508;28;20051;-75
2022/06/22 04:28:00;;;;;;;14.32;9.68;;;;;;;8.88;100.00;101545.88;5054370;28;20028;-76
2022/06/22 04:30:30;;;;;;;14.63;9.25;;;;;;;8.92;100.00;101535.91;5053864;28;20044;-75
2022/06/22 04:33:08;;;;;;;13.90;9.95;;;;;;;8.99;100.00;101540.66;5053790;28;20418;-76
2022/06/22 04:35:37;;;;;;;17.30;10.55;;;;;;;9.06;100.00;101540.22;5053712;28;20117;-75
2022/06/22 04:38:05;;;;;;;14.63;9.70;;;;;;;9.10;100.00;101534.56;5053831;28;20041;-76
2022/06/22 04:40:36;;;;;;;14.93;10.32;;;;;;;9.16;100.00;101535.91;5053864;28;20067;-76
2022/06/22 04:43:04;;;;;;;17.40;11.20;;;;;;;9.22;100.00;101530.16;5052542;28;20145;-76
2022/06/22 04:45:32;;;;;;;16.55;11.10;;;;;;;9.29;100.00;101530.56;5053214;28;20025;-75
2022/06/22 04:48:05;;;;;;;18.90;10.85;;;;;;;9.34;100.00;101521.31;5054010;28;20422;-74
2022/06/22 04:50:31;;;;;;;16.13;12.23;;;;;;;9.43;100.00;101526.88;5053599;28;20048;-76
2022/06/22 04:52:59;;;;;;;19.30;12.52;;;;;;;9.47;100.00;101536.31;5053646;28;20129;-75
2022/06/22 04:55:27;;;;;;;20.95;11.80;;;;;;;9.55;100.00;101541.03;5052234;28;20029;-75
2022/06/22 04:57:57;;;;;;;22.80;14.82;;;;;;;9.60;100.00;101537.09;5053389;28;20043;-76
2022/06/22 05:00:26;;;;;;;18.60;12.18;;;;;;;9.67;100.00;101534.78;5053416;28;20035;-75
2022/06/22 05:03:15;;;;;;;23.33;13.48;;;;;;;9.76;100.00;101541.22;5052671;28;20033;-75
2022/06/22 05:05:41;;;;;;;20.17;12.82;;;;;;;9.86;100.00;101544.88;5053040;28;20037;-76
2022/06/22 05:08:20;;;;;;;22.05;14.32;;;;;;;9.98;100.00;101543.94;5053324;28;20082;-75
2022/06/22 05:10:56;;;;;;;24.55;14.85;;;;;;;10.09;100.00;101544.91;5053900;28;20063;-75
2022/06/22 05:13:56;;;;;;;21.55;14.77;;;;;;;10.20;100.00;101566.22;5054573;28;20029;-75
2022/06/22 05:16:30;;;;;;;24.45;16.23;;;;;;;10.30;100.00;101564.53;5042281;28;20063;-76
2022/06/22 05:18:56;;;;;;;23.75;14.10;;;;;;;10.40;100.00;101568.22;5053815;28;20322;-75
2022/06/22 05:21:37;;;;;;;23.25;14.52;;;;;;;10.54;100.00;101566.28;5054190;28;20029;-75
2022/06/22 05:24:35;;;;;;;19.60;12.70;;;;;;;10.65;100.00;101571.59;5054392;28;20037;-75
2022/06/22 05:27:06;;;;;;;18.67;12.35;;;;;;;10.76;100.00;101576.06;5054139;28;20065;-75
2022/06/22 05:29:36;;;;;;;21.08;12.13;;;;;;;10.87;100.00;101575.22;5053814;28;20118;-80
2022/06/22 05:32:05;;;;;;;19.13;12.18;;;;;;;10.98;100.00;101566.34;5053821;28;20470;-77
2022/06/22 05:34:37;;;;;;;19.00;11.77;;;;;;;11.11;100.00;101573.22;5053822;28;20037;-78
2022/06/22 05:37:08;;;;;;;21.17;12.57;;;;;;;11.25;100.00;101577.41;5054041;28;20144;-75
2022/06/22 05:39:36;;;;;;;24.73;14.50;;;;;;;11.40;100.00;101580.63;5054092;28;20478;-77
2022/06/22 05:42:03;;;;;;;14.68;10.88;;;;;;;11.55;100.00;101575.03;5053562;28;20036;-75
2022/06/22 05:44:28;;;;;;;21.40;12.95;;;;;;;11.72;100.00;101577.13;5053141;28;20067;-76
2022/06/22 05:46:57;;;;;;;19.45;11.75;;;;;;;11.93;100.00;101587.84;5053268;28;20033;-76
2022/06/22 05:49:31;;;;;;;20.67;13.40;;;;;;;12.21;100.00;101589.97;5053131;28;20037;-77
2022/06/22 05:52:28;;;;;;;23.88;14.60;;;;;;;12.49;100.00;101585.78;5053438;28;20369;-75
2022/06/22 05:55:00;;;;;;;33.35;15.02;;;;;;;12.82;100.00;101591.81;5053156;28;20029;-75
2022/06/22 05:58:06;;;;;;;22.23;13.18;;;;;;;13.08;100.00;101586.81;5052948;28;20036;-74
2022/06/22 06:00:53;;;;;;;17.63;11.55;;;;;;;13.40;100.00;101591.97;5049707;28;20446;-76
2022/06/22 06:03:33;;;;;;;18.10;11.15;;;;;;;13.65;100.00;101597.75;5053085;28;20065;-76
2022/06/22 06:06:04;;;;;;;18.30;8.98;;;;;;;13.80;100.00;101594.66;5052841;28;20054;-76
2022/06/22 06:08:29;;;;;;;;;;;;;;;14.09;100.00;101589.25;5051720;28;20057;-74
2022/06/22 06:10:56;;;;;;;12.27;7.87;;;;;;;14.40;100.00;101584.50;5052988;28;19916;-76
2022/06/22 06:13:38;;;;;;;9.98;7.20;;;;;;;14.73;100.00;101587.66;5052170;28;20358;-74
2022/06/22 06:16:07;;;;;;;;;;;;;;;15.00;97.09;101596.69;5052267;28;20459;-75
2022/06/22 06:18:38;;;;;;;12.65;6.30;;;;;;;15.27;97.11;101592.28;5052457;28;19923;-75
2022/06/22 06:21:17;;;;;;;11.27;5.30;;;;;;;15.47;89.46;101593.00;5051223;28;20025;-77
2022/06/22 06:23:52;;;;;;;13.57;6.45;;;;;;;15.74;89.65;101588.56;5051778;28;20079;-75
2022/06/22 06:29:30;;;;;;;12.70;4.88;;;;;;;16.29;76.65;101584.81;5052635;28;20549;-76
2022/06/22 06:32:05;;;;;;;8.30;3.97;;;;;;;16.47;76.21;101590.94;5052750;28;20386;-76
2022/06/22 06:34:41;;;;;;;5.72;3.78;;;;;;;16.62;74.89;101590.34;5052743;28;20816;-75
2022/06/22 06:37:23;;;;;;;9.70;3.88;;;;;;;16.80;71.34;101590.25;5052197;28;20465;-76
2022/06/22 06:39:52;;;;;;;10.88;3.92;;;;;;;17.00;73.26;101586.31;5052708;28;20028;-76
2022/06/22 06:42:22;;;;;;;6.18;3.50;;;;;;;17.26;73.48;101582.69;5052494;28;20049;-78
2022/06/22 06:44:50;;;;;;;6.80;3.28;;;;;;;17.45;71.63;101586.91;5052392;28;20037;-79
2022/06/22 06:47:24;;;;;;;6.28;3.38;;;;;;;17.60;68.70;101582.56;5050699;28;20116;-78
2022/06/22 06:50:12;;;;;;;7.35;3.00;;;;;;;17.66;65.52;101578.38;5052750;28;20075;-78
2022/06/22 06:53:00;;;;;;;10.05;3.75;;;;;;;17.72;65.24;101566.94;5052692;28;20024;-78
2022/06/22 06:55:38;;;;;;;5.07;3.22;;;;;;;17.84;64.51;101570.13;5052647;28;20465;-78
2022/06/22 06:58:30;;;;;;;6.78;3.20;;;;;;;17.82;62.19;101561.38;5051842;28;20037;-78
2022/06/22 07:00:56;;;;;;;7.18;2.83;;;;;;;17.86;62.17;101570.78;5052176;28;20029;-77
2022/06/22 07:03:26;;;;;;;7.97;3.10;;;;;;;17.89;62.36;101558.84;5052542;28;20167;-78
2022/06/22 07:05:52;;;;;;;6.82;2.97;;;;;;;17.95;61.81;101560.88;5052038;28;20106;-78
2022/06/22 07:08:20;;;;;;;5.50;3.08;;;;;;;18.08;62.18;101558.50;5052145;28;20033;-78
2022/06/22 07:11:03;;;;;;;6.68;2.95;;;;;;;18.29;61.92;101560.66;5052169;28;20072;-78
2022/06/22 07:13:37;;;;;;;11.98;3.15;;;;;;;18.30;58.72;101551.56;5052384;28;20074;-79
2022/06/22 07:16:12;;;;;;;6.78;2.72;;;;;;;18.37;59.95;101554.38;5052299;28;20381;-76
2022/06/22 07:18:42;;;;;;;4.85;2.53;;;;;;;18.48;60.21;101558.56;5051816;28;20519;-77
2022/06/22 07:21:16;;;;;;;8.85;2.78;;;;;;;18.72;60.96;101552.25;5051938;28;20137;-76
2022/06/22 07:24:14;;;;;;;13.25;3.30;;;;;;;18.88;57.79;101551.34;5052148;28;20480;-77
2022/06/22 07:27:01;;;;;;;9.10;3.85;;;;;;;19.05;59.06;101551.25;5048102;28;20361;-76
2022/06/22 07:30:00;;;;;;;12.15;3.95;;;;;;;19.13;58.56;101552.03;5055947;28;20029;-76
2022/06/22 07:32:51;;;;;;;9.57;3.50;;;;;;;19.36;59.21;101559.31;5055941;28;20035;-78
2022/06/22 07:35:28;;;;;;;;;;;;;;;19.45;55.00;101557.38;5056683;28;20108;-77
2022/06/22 07:38:03;;;;;;;4.50;2.58;;;;;;;19.54;56.75;101561.69;5055792;28;19935;-81
2022/06/22 07:40:30;;;;;;;6.63;3.13;;;;;;;19.66;55.52;101562.09;5055808;28;20163;-76
2022/06/22 07:42:58;;;;;;;15.63;3.92;;;;;;;19.60;54.08;101552.91;5055644;28;20039;-76
2022/06/22 07:45:25;;;;;;;8.52;3.70;;;;;;;19.58;53.63;101552.22;5056433;28;20141;-81
2022/06/22 07:48:02;;;;;;;5.30;2.60;;;;;;;19.76;54.81;101564.56;5055264;28;20058;-79
2022/06/22 07:50:33;;;;;;;7.82;3.05;;;;;;;19.93;54.28;101558.03;5056041;28;20029;-80
2022/06/22 07:53:14;;;;;;;10.52;3.17;;;;;;;20.11;53.59;101546.03;5054549;28;20121;-78
2022/06/22 07:55:56;;;;;;;7.85;2.75;;;;;;;20.34;53.92;101549.47;5055839;28;20029;-78
2022/06/22 07:58:30;;;;;;;6.57;3.20;;;;;;;20.54;52.89;101547.06;5055493;28;20045;-77
2022/06/22 08:01:00;;;;;;;8.40;3.10;;;;;;;20.71;52.03;101544.19;5056042;28;20104;-78
2022/06/22 08:03:28;;;;;;;9.45;3.05;;;;;;;20.71;51.37;101536.06;5055685;28;20102;-78
2022/06/22 08:05:57;;;;;;;10.60;3.65;;;;;;;20.71;53.37;101539.59;5055577;28;20059;-78
2022/06/22 08:08:26;;;;;;;11.32;3.30;;;;;;;20.76;51.55;101547.97;5055420;28;20079;-79
2022/06/22 08:10:57;;;;;;;7.63;3.30;;;;;;;20.78;51.37;101547.81;5055267;28;20052;-79
2022/06/22 08:13:30;;;;;;;;;;;;;;;20.85;51.17;101542.47;5055752;28;20056;-81
2022/06/22 08:16:26;;;;;;;9.73;3.70;;;;;;;20.86;49.35;101541.44;5055540;28;20038;-79
2022/06/22 08:18:52;;;;;;;7.57;3.45;;;;;;;21.03;50.67;101545.56;5055134;28;20029;-80
2022/06/22 08:21:20;;;;;;;9.23;4.40;;;;;;;21.09;50.72;101547.53;5055029;28;20067;-79
2022/06/22 08:23:46;;;;;;;17.02;3.65;;;;;;;21.26;50.48;101540.00;5054770;28;20060;-78
2022/06/22 08:26:23;;;;;;;9.23;3.67;;;;;;;21.35;47.61;101546.13;5054770;28;20029;-77
2022/06/22 08:28:49;;;;;;;8.48;3.63;;;;;;;21.60;49.33;101543.91;5054976;28;20033;-75
2022/06/22 08:31:15;;;;;;;8.40;4.32;;;;;;;21.86;47.48;101547.03;5054832;28;20065;-77
2022/06/22 08:33:42;;;;;;;11.93;4.40;;;;;;;22.09;48.65;101552.16;5054744;28;20485;-73
2022/06/22 08:36:23;;;;;;;7.20;3.42;;;;;;;22.24;46.06;101550.16;5054513;28;20025;-73
2022/06/22 08:38:56;;;;;;;7.20;3.92;;;;;;;22.22;47.29;101554.13;5053624;28;20082;-72
2022/06/22 08:41:34;;;;;;;9.95;4.70;;;;;;;22.54;47.14;101558.94;5053369;28;20032;-73
2022/06/22 08:44:25;;;;;;;8.43;2.90;;;;;;;22.83;41.50;101553.41;5054768;28;20091;-73
2022/06/22 08:47:12;;;;;;;7.57;2.80;;;;;;;23.43;41.34;101559.00;5054944;28;20033;-73
2022/06/22 08:50:20;;;;;;;7.75;3.25;;;;;;;24.24;40.24;101554.38;5054805;28;20094;-73
2022/06/22 08:53:20;;;;;;;9.93;4.05;;;;;;;24.59;38.68;101549.50;5045161;28;20036;-73
2022/06/22 08:56:20;;;;;;;8.00;3.50;;;;;;;25.41;38.58;101553.47;5054047;28;20025;-74
2022/06/22 08:59:04;;;;;;;5.88;3.35;;;;;;;26.45;35.82;101555.66;5053026;28;20123;-76
2022/06/22 09:02:07;;;;;;;8.10;3.10;;;;;;;27.27;34.58;101567.00;5061899;28;20025;-75
2022/06/22 09:04:44;;;;;;;9.27;3.40;;;;;;;27.85;33.21;101556.38;5055181;28;20425;-77
2022/06/22 09:07:28;;;;;;;8.20;3.58;;;;;;;28.45;32.27;101560.75;5054507;28;20361;-79
2022/06/22 09:10:06;;;;;;;6.45;3.55;;;;;;;28.77;30.65;101556.78;5055028;28;20033;-79
2022/06/22 09:12:50;;;;;;;7.05;3.00;;;;;;;29.61;29.99;101549.78;5054779;28;20450;-77
2022/06/22 09:15:24;;;;;;;5.25;3.05;;;;;;;30.18;26.84;101551.47;5054377;28;20032;-73
2022/06/22 09:18:17;;;;;;;9.00;3.15;;;;;;;30.27;27.85;101554.59;5055234;28;20482;-74
2022/06/22 09:21:10;;;;;;;8.13;2.92;;;;;;;31.20;27.20;101546.38;5054823;28;20021;-74
2022/06/22 09:23:44;;;;;;;4.18;2.40;;;;;;;31.38;24.15;101552.56;5054523;28;20037;-73
2022/06/22 09:26:36;;;;;;;11.25;2.30;;;;;;;29.29;27.41;101544.88;5054124;28;20040;-75
2022/06/22 09:29:27;;;;;;;4.15;2.25;;;;;;;30.30;26.33;101543.13;5054072;28;20097;-74
2022/06/22 09:32:15;;;;;;;6.88;2.53;;;;;;;30.92;24.95;101548.25;5046362;28;20041;-74
2022/06/22 09:35:19;;;;;;;9.00;2.53;;;;;;;30.59;24.00;101546.53;5054582;28;20174;-75
2022/06/22 09:37:47;;;;;;;9.18;2.55;;;;;;;31.00;26.09;101543.44;5053515;28;20049;-74
2022/06/22 09:40:32;;;;;;;6.93;2.35;;;;;;;31.47;25.36;101540.00;5053780;28;20047;-77
2022/06/22 09:43:24;;;;;;;5.78;2.67;;;;;;;31.16;26.92;101549.88;5053837;28;20056;-74
2022/06/22 09:46:13;;;;;;;4.47;2.30;;;;;;;31.63;23.81;101544.56;5053527;28;20032;-74
2022/06/22 09:49:16;;;;;;;7.40;2.33;;;;;;;30.64;23.83;101543.03;5053905;28;20033;-75
2022/06/22 09:52:07;;;;;;;6.00;2.15;;;;;;;31.15;25.29;101537.25;5053651;28;20033;-78
2022/06/22 09:57:34;;;;;;;5.45;2.30;;;;;;;31.57;24.62;101529.09;5053571;28;20056;-75
2022/06/22 10:00:15;;;;;;;5.80;2.08;;;;;;;32.27;25.14;101548.22;5053003;28;20074;-75
2022/06/22 10:02:52;;;;;;;3.95;2.03;;;;;;;31.89;23.01;101532.88;5053979;28;20065;-75
2022/06/22 10:05:55;;;;;;;6.07;2.60;;;;;;;32.08;26.49;101538.75;5053226;28;20039;-76
2022/06/22 10:08:55;;;;;;;7.10;2.70;;;;;;;31.51;28.59;101534.78;5052822;28;20385;-74
2022/06/22 10:11:23;;;;;;;;;;;;;;;31.41;28.12;101533.63;5054690;28;20454;-74
2022/06/22 10:14:18;;;;;;;8.50;3.03;;;;;;;31.46;30.00;101528.16;5053906;28;19917;-74
2022/06/22 10:16:59;;;;;;;7.40;3.10;;;;;;;31.47;28.61;101532.56;5053152;28;20016;-73
2022/06/22 10:19:45;;;;;;;6.43;2.78;;;;;;;31.52;28.46;101534.53;5052892;28;20108;-74
2022/06/22 10:22:20;;;;;;;6.03;2.78;;;;;;;31.87;26.92;101535.06;5053067;28;20469;-73
2022/06/22 10:24:54;;;;;;;5.65;2.45;;;;;;;31.75;28.32;101525.06;5053723;28;20033;-74
2022/06/22 10:27:34;;;;;;;7.70;2.85;;;;;;;31.32;28.46;101526.13;5052667;28;20128;-71
2022/06/22 10:30:18;;;;;;;7.75;2.92;;;;;;;31.31;29.43;101536.28;5052293;28;20119;-74
2022/06/22 10:32:55;;;;;;;5.85;2.85;;;;;;;32.08;29.49;101531.34;5052418;28;20112;-73
2022/06/22 10:35:24;;;;;;;9.05;2.75;;;;;;;32.61;26.69;101530.47;5051049;28;20036;-74
2022/06/22 10:38:08;;;;;;;13.38;2.80;;;;;;;32.85;26.02;101530.84;5051748;28;20055;-75
2022/06/22 10:46:30;;;;;;;9.88;3.40;;;;;;;32.19;27.55;101523.16;5052544;28;20040;-76
2022/06/22 10:49:11;;;;;;;8.27;2.53;;;;;;;32.17;27.24;101524.25;5052775;28;20033;-75
2022/06/22 10:51:49;;;;;;;10.05;3.10;;;;;;;32.34;26.70;101520.47;5052065;28;20112;-75
2022/06/22 10:54:27;;;;;;;11.70;3.22;;;;;;;32.84;25.82;101520.91;5052220;28;20025;-74
2022/06/22 10:57:00;;;;;;;11.75;3.05;;;;;;;32.56;26.25;101514.78;5052402;28;20380;-73
2022/06/22 10:59:43;;;;;;;10.02;2.78;;;;;;;32.20;27.15;101517.38;5052257;28;20025;-74
2022/06/22 11:02:12;;;;;;;7.60;2.83;;;;;;;32.17;24.48;101518.75;5051178;28;20033;-73
2022/06/22 11:04:56;;;;;;;7.05;2.45;;;;;;;32.14;24.66;101521.19;5050496;28;20167;-73
2022/06/22 11:07:53;;;;;;;5.82;2.88;;;;;;;32.25;26.28;101520.16;5052344;28;20037;-74
2022/06/22 11:10:31;;;;;;;5.65;2.63;;;;;;;32.27;26.70;101515.19;5029800;28;20040;-73
2022/06/22 11:13:02;;;;;;;9.27;2.85;;;;;;;32.80;26.55;101512.38;5051808;28;20033;-72
2022/06/22 11:16:22;;;;;;;5.10;2.25;;;;;;;32.80;26.75;101506.00;5050759;28;20373;-74
2022/06/22 11:19:11;;;;;;;9.60;3.00;;;;;;;33.50;26.62;101503.59;5009692;28;20061;-73
2022/06/22 11:22:02;;;;;;;5.45;3.20;;;;;;;33.21;22.73;101501.38;5052070;28;20108;-73
2022/06/22 11:24:43;;;;;;;6.80;2.88;;;;;;;33.29;22.42;101501.94;5051912;28;20097;-75
2022/06/22 11:30:51;;;;;;;6.00;2.40;;;;;;;33.76;23.08;101495.28;5052595;28;20116;-77
2022/06/22 11:33:41;;;;;;;8.40;2.97;;;;;;;33.14;24.15;101489.81;5052479;28;20025;-73
2022/06/22 11:36:15;;;;;;;7.07;3.55;;;;;;;32.97;22.96;101486.47;5052188;28;20040;-74
2022/06/22 11:39:18;;;;;;;8.00;3.25;;;;;;;33.01;23.87;101484.84;5051358;28;20114;-74
2022/06/22 11:42:04;;;;;;;8.73;3.00;;;;;;;33.02;23.66;101484.56;5051962;28;20085;-78
2022/06/22 11:47:54;;;;;;;6.50;3.25;;;;;;;32.69;20.41;101481.22;5051688;28;20047;-76
2022/06/22 11:50:25;;;;;;;7.65;2.90;;;;;;;33.09;21.82;101484.28;5030197;28;20124;-75
2022/06/22 11:53:08;;;;;;;7.05;2.55;;;;;;;33.20;23.48;101479.59;5052067;28;20128;-75
2022/06/22 11:55:39;;;;;;;7.75;2.90;;;;;;;33.90;23.24;101482.56;5050576;28;20025;-76
2022/06/22 11:58:32;;;;;;;6.47;2.88;;;;;;;34.30;21.77;101490.97;5050692;28;20033;-77
2022/06/22 12:01:02;;;;;;;9.85;2.60;;;;;;;34.11;22.05;101478.88;5052159;28;20029;-72
2022/06/22 12:03:47;;;;;;;7.28;2.38;;;;;;;33.78;23.18;101467.41;5051834;28;20045;-75
2022/06/22 12:06:21;;;;;;;13.38;2.22;;;;;;;33.48;23.21;101467.16;5050724;28;20389;-73
2022/06/22 12:09:30;;;;;;;3.50;2.40;;;;;;;33.43;21.91;101464.44;5051453;28;20060;-74
2022/06/22 12:12:33;;;;;;;7.00;2.70;;;;;;;32.86;19.31;101458.91;5051698;28;20472;-74
2022/06/22 12:15:21;;;;;;;3.72;1.95;;;;;;;33.37;22.28;101460.84;5055109;28;20037;-73
2022/06/22 12:18:11;;;;;;;4.32;2.20;;;;;;;33.42;21.05;101467.47;5055371;28;20032;-75
2022/06/22 12:21:09;;;;;;;3.92;2.13;;;;;;;33.61;20.43;101474.03;5055304;28;20024;-83
2022/06/22 12:23:58;;;;;;;3.92;2.05;;;;;;;33.32;22.43;101474.66;5054289;28;20017;-76
2022/06/22 12:26:46;;;;;;;5.63;2.53;;;;;;;33.21;20.58;101467.50;5055375;28;20071;-77
2022/06/22 12:29:37;;;;;;;4.88;2.53;;;;;;;33.26;21.62;101464.72;5049328;28;20047;-77
2022/06/22 12:32:13;;;;;;;7.10;2.40;;;;;;;33.87;20.59;101463.78;5055138;28;20481;-78